Time;durP1;ratioP1;P1;durP2;ratioP2;P2;SDS_P1;SDS_P2;PMS_P1;PMS_P2;Temp;Humidity;BMP_temperature;BMP_pressure;BME280_temperature;BME280_humidity;BME280_pressure;Samples;Min_cycle;Max_cycle;Signal;HPM_P1;HPM_P2
2022/06/15 00:01:26;;;;;;;;;3.33;3.33;;;;;22.40;39.49;101323.84;5068160;28;63167;-58
2022/06/15 00:03:52;;;;;;;;;5.00;4.00;;;;;22.37;39.19;101326.81;5069319;27;46583;-58
2022/06/15 00:06:23;;;;;;;;;6.00;4.00;;;;;22.34;39.51;101332.50;5065118;28;45821;-57
2022/06/15 00:08:51;;;;;;;;;3.67;3.67;;;;;22.27;39.56;101332.22;5064757;28;45543;-57
2022/06/15 00:11:35;;;;;;;;;2.67;2.67;;;;;22.26;39.50;101331.34;5062928;28;45422;-58
2022/06/15 00:14:06;;;;;;;;;2.67;2.33;;;;;22.26;40.42;101333.22;5066581;28;45420;-58
2022/06/15 00:16:32;;;;;;;;;5.00;3.00;;;;;22.25;39.89;101326.94;5064254;28;46340;-57
2022/06/15 00:18:57;;;;;;;;;4.00;4.00;;;;;22.26;40.16;101330.50;5066577;28;45524;-57
2022/06/15 00:21:22;;;;;;;;;3.00;3.00;;;;;22.26;39.92;101323.22;5063652;28;62505;-57
2022/06/15 00:23:48;;;;;;;;;3.00;3.00;;;;;22.27;40.23;101332.22;5065716;27;46674;-58
2022/06/15 00:26:14;;;;;;;;;2.67;2.67;;;;;22.22;40.33;101327.22;5064398;27;45786;-59
2022/06/15 00:28:39;;;;;;;;;5.00;5.00;;;;;22.20;40.35;101322.94;5066494;28;45636;-57
2022/06/15 00:31:05;;;;;;;;;2.67;2.67;;;;;22.19;40.24;101326.63;5063752;28;45450;-58
2022/06/15 00:33:31;;;;;;;;;3.33;3.33;;;;;22.20;40.63;101333.75;5060734;28;45584;-58
2022/06/15 00:36:03;;;;;;;;;5.00;4.00;;;;;22.19;40.24;101330.22;5071144;28;46169;-58
2022/06/15 00:38:37;;;;;;;;;4.00;4.00;;;;;22.20;40.79;101333.75;5067656;28;45494;-58
2022/06/15 00:41:04;;;;;;;;;5.00;5.00;;;;;22.20;40.36;101331.94;5065394;27;45331;-58
2022/06/15 00:43:41;;;;;;;;;3.67;3.67;;;;;22.17;40.88;101342.19;5062382;28;45970;-57
2022/06/15 00:46:38;;;;;;;;;3.00;3.00;;;;;22.14;40.80;101338.75;5063111;28;46223;-58
2022/06/15 00:49:09;;;;;;;;;4.00;3.67;;;;;22.15;41.16;101350.44;5063399;28;45291;-57
2022/06/15 00:51:35;;;;;;;;;3.00;3.00;;;;;22.15;40.50;101339.63;5063909;28;45375;-57
2022/06/15 00:54:01;;;;;;;;;6.33;3.00;;;;;22.18;40.75;101333.06;5084808;27;45527;-58
2022/06/15 00:56:29;;;;;;;;;5.00;4.00;;;;;22.17;41.21;101334.91;5079194;27;71524;-58
2022/06/15 00:58:57;;;;;;;;;3.00;3.00;;;;;22.14;40.70;101338.75;5063695;28;45575;-58
2022/06/15 01:01:23;;;;;;;;;3.00;3.00;;;;;22.09;41.02;101341.00;5069084;28;45442;-58
2022/06/15 01:03:49;;;;;;;;;2.00;2.00;;;;;22.09;41.41;101338.31;5061690;28;45783;-57
2022/06/15 01:06:40;;;;;;;;;5.67;4.00;;;;;22.07;40.68;101342.16;5064828;27;46139;-58
2022/06/15 01:09:23;;;;;;;;;6.00;4.00;;;;;22.04;40.96;101337.84;5067224;28;45446;-58
2022/06/15 01:12:15;;;;;;;;;3.33;3.33;;;;;22.02;41.21;101336.28;5066642;28;45498;-58
2022/06/15 01:15:12;;;;;;;;;4.33;3.67;;;;;21.97;41.44;101339.44;5082218;27;46649;-58
2022/06/15 01:17:55;;;;;;;;;4.00;4.00;;;;;21.97;41.45;101336.72;5076111;27;45491;-58
2022/06/15 01:20:33;;;;;;;;;4.33;3.00;;;;;21.95;41.54;101338.69;5059610;28;45450;-58
2022/06/15 01:23:04;;;;;;;;;4.67;3.00;;;;;21.94;41.80;101331.56;5063425;28;45623;-58
2022/06/15 01:25:54;;;;;;;;;2.33;2.33;;;;;21.89;42.10;101342.81;5056479;28;45636;-58
2022/06/15 01:28:35;;;;;;;;;3.00;3.00;;;;;21.84;41.98;101342.38;5055403;28;46224;-58
2022/06/15 01:31:22;;;;;;;;;4.00;4.00;;;;;21.78;41.92;101341.09;5060080;28;45525;-58
2022/06/15 01:34:01;;;;;;;;;3.67;3.67;;;;;21.66;42.58;101333.19;5058050;28;45305;-58
2022/06/15 01:36:46;;;;;;;;;4.00;4.00;;;;;21.66;42.49;101333.19;5060431;28;45498;-57
2022/06/15 01:39:23;;;;;;;;;4.00;4.00;;;;;21.58;42.68;101332.00;5047915;28;47030;-58
2022/06/15 01:42:05;;;;;;;;;5.00;4.00;;;;;21.56;42.24;101334.03;5058552;28;45301;-58
2022/06/15 01:44:34;;;;;;;;;4.00;4.00;;;;;21.56;42.77;101331.31;5065954;28;45457;-58
2022/06/15 01:47:02;;;;;;;;;3.00;3.00;;;;;21.55;42.56;101324.19;5065293;28;45589;-58
2022/06/15 01:49:40;;;;;;;;;4.33;3.00;;;;;21.56;42.59;101325.03;5061184;28;46013;-58
2022/06/15 01:52:08;;;;;;;;;6.00;4.00;;;;;21.57;42.88;101324.88;5056943;28;45557;-58
2022/06/15 01:54:42;;;;;;;;;6.33;4.33;;;;;21.55;43.06;101321.47;5058290;28;45466;-58
2022/06/15 01:57:09;;;;;;;;;4.00;4.00;;;;;21.56;43.10;101316.91;5066297;27;45644;-58
2022/06/15 01:59:42;;;;;;;;;3.00;3.00;;;;;21.53;42.58;101314.44;5064632;28;46403;-57
2022/06/15 02:02:20;;;;;;;;;4.00;4.00;;;;;21.49;43.01;101316.56;5063827;27;45335;-57
2022/06/15 02:05:15;;;;;;;;;3.33;3.33;;;;;21.44;42.92;101316.97;5065344;28;45361;-58
2022/06/15 02:08:11;;;;;;;;;4.00;4.00;;;;;21.42;43.08;101315.38;5055411;28;45403;-57
2022/06/15 02:10:48;;;;;;;;;5.00;5.00;;;;;21.39;42.93;101315.66;5063064;28;45892;-57
2022/06/15 02:13:22;;;;;;;;;4.00;4.00;;;;;21.37;43.61;101315.81;5055725;28;45541;-58
2022/06/15 02:15:51;;;;;;;;;6.67;4.67;;;;;21.38;43.17;101312.09;5065494;28;45528;-58
2022/06/15 02:18:18;;;;;;;;;3.67;3.00;;;;;21.32;43.32;101308.06;5062915;28;45453;-58
2022/06/15 02:20:51;;;;;;;;;4.00;4.00;;;;;21.33;43.07;101303.53;5063325;28;45568;-58
2022/06/15 02:23:16;;;;;;;;;4.00;4.00;;;;;21.31;43.69;101302.81;5064131;28;45769;-58
2022/06/15 02:25:46;;;;;;;;;4.00;4.00;;;;;21.25;43.60;101306.03;5072525;27;67282;-58
2022/06/15 02:28:12;;;;;;;;;3.33;3.33;;;;;21.18;43.53;101302.19;5061877;28;45533;-58
2022/06/15 02:30:39;;;;;;;;;5.00;5.00;;;;;21.14;43.60;101305.13;5059389;28;71062;-58
2022/06/15 02:33:25;;;;;;;;;5.33;4.67;;;;;21.10;43.92;101297.44;5059702;27;45465;-57
2022/06/15 02:35:51;;;;;;;;;3.67;3.67;;;;;21.06;43.74;101304.09;5058597;27;45676;-57
2022/06/15 02:38:16;;;;;;;;;4.00;4.00;;;;;21.04;44.36;101303.38;5055624;28;45465;-57
2022/06/15 02:40:42;;;;;;;;;6.00;4.33;;;;;21.03;44.52;101304.34;5060487;28;47046;-57
2022/06/15 02:43:09;;;;;;;;;5.67;4.67;;;;;21.02;44.24;101302.66;5053763;28;64722;-57
2022/06/15 02:45:37;;;;;;;;;5.00;5.00;;;;;21.00;44.29;101305.47;5060811;28;45410;-58
2022/06/15 02:48:04;;;;;;;;;5.00;5.00;;;;;21.01;44.48;101293.69;5065404;28;45567;-58
2022/06/15 02:50:39;;;;;;;;;5.67;4.00;;;;;21.02;44.11;101291.84;5063320;28;45847;-58
2022/06/15 02:53:11;;;;;;;;;3.00;3.00;;;;;21.02;44.19;101292.69;5077991;27;46759;-58
2022/06/15 02:55:37;;;;;;;;;4.00;4.00;;;;;20.97;44.41;101290.38;5063244;28;45308;-57
2022/06/15 02:58:13;;;;;;;;;4.33;4.00;;;;;20.96;44.88;101298.63;5070379;28;45545;-57
2022/06/15 03:00:39;;;;;;;;;6.00;4.33;;;;;20.98;44.41;101299.34;5069130;28;46195;-58
2022/06/15 03:03:05;;;;;;;;;6.67;6.00;;;;;20.99;44.22;101296.50;5064712;27;45475;-58
2022/06/15 03:05:31;;;;;;;;;4.00;4.00;;;;;21.02;44.60;101292.69;5061707;28;45271;-57
2022/06/15 03:07:57;;;;;;;;;5.67;5.67;;;;;20.99;44.43;101292.97;5064106;28;45417;-58
2022/06/15 03:10:22;;;;;;;;;4.67;4.00;;;;;21.00;44.94;101291.94;5065365;28;45706;-58
2022/06/15 03:12:48;;;;;;;;;8.33;5.33;;;;;21.00;44.59;101300.06;5060813;27;45524;-58
2022/06/15 03:15:14;;;;;;;;;7.00;5.33;;;;;21.02;44.58;101308.91;5055909;28;45292;-58
2022/06/15 03:17:39;;;;;;;;;8.00;5.00;;;;;21.04;44.83;101306.06;5062317;27;45378;-58
2022/06/15 03:20:05;;;;;;;;;6.67;5.00;;;;;21.04;44.43;101306.94;5057640;28;47002;-58
2022/06/15 03:22:34;;;;;;;;;6.00;5.00;;;;;21.03;44.53;101312.47;5057949;28;45456;-58
2022/06/15 03:24:59;;;;;;;;;4.33;4.33;;;;;21.05;44.54;101311.34;5064782;28;45382;-58
2022/06/15 03:27:25;;;;;;;;;6.00;6.00;;;;;21.07;44.73;101312.06;5050038;27;45651;-58
2022/06/15 03:29:50;;;;;;;;;6.00;5.00;;;;;21.08;44.83;101312.91;5055080;28;74732;-58
2022/06/15 03:32:16;;;;;;;;;5.67;5.67;;;;;21.08;44.58;101312.91;5059713;28;45441;-58
2022/06/15 03:34:42;;;;;;;;;3.33;3.33;;;;;21.06;44.97;101312.22;5063018;28;45378;-58
2022/06/15 03:37:08;;;;;;;;;5.00;5.00;;;;;21.03;45.07;101309.75;5069011;28;45500;-58
2022/06/15 03:39:33;;;;;;;;;6.00;6.00;;;;;21.02;44.47;101310.78;5071003;28;46041;-58
2022/06/15 03:42:09;;;;;;;;;7.67;5.00;;;;;21.04;44.58;101306.06;5061355;27;68360;-58
2022/06/15 03:44:35;;;;;;;;;5.67;5.67;;;;;21.04;45.14;101309.66;5059494;28;45293;-58
2022/06/15 03:47:00;;;;;;;;;4.67;4.67;;;;;21.05;44.70;101310.50;5058451;27;45524;-58
2022/06/15 03:49:25;;;;;;;;;4.00;4.00;;;;;21.05;45.07;101308.63;5064917;27;71392;-58
2022/06/15 03:51:50;;;;;;;;;5.33;5.33;;;;;21.06;44.71;101299.53;5058984;28;70091;-58
2022/06/15 03:54:16;;;;;;;;;6.33;4.67;;;;;21.05;45.12;101305.94;5053196;28;63845;-58
2022/06/15 03:56:43;;;;;;;;;5.00;5.00;;;;;21.03;44.52;101305.22;5060065;27;45671;-58
2022/06/15 03:59:09;;;;;;;;;5.00;5.00;;;;;21.02;45.01;101295.41;5069288;28;46048;-58
2022/06/15 04:01:35;;;;;;;;;6.00;6.00;;;;;20.99;44.65;101298.38;5060405;28;45769;-58
2022/06/15 04:04:00;;;;;;;;;7.33;6.00;;;;;20.99;44.74;101301.91;5064441;27;61262;-58
2022/06/15 04:06:25;;;;;;;;;8.00;5.00;;;;;20.99;44.76;101307.34;5064026;28;68370;-58
2022/06/15 04:08:52;;;;;;;;;6.00;5.67;;;;;20.99;44.73;101304.63;5061515;28;73453;-58
2022/06/15 04:14:04;;;;;;;;;7.00;4.33;;;;;20.94;44.96;101308.72;5070289;28;45465;-57
2022/06/15 04:16:30;;;;;;;;;4.00;3.67;;;;;20.92;45.13;101308.84;5062231;28;45475;-57
2022/06/15 04:18:56;;;;;;;;;8.00;5.00;;;;;20.91;45.31;101307.16;5070026;28;46064;-57
2022/06/15 04:21:21;;;;;;;;;5.00;5.00;;;;;20.89;45.02;101292.88;5074323;27;45599;-57
2022/06/15 04:23:47;;;;;;;;;5.67;5.00;;;;;20.85;45.23;101306.81;5071168;28;66328;-58
2022/06/15 04:26:12;;;;;;;;;5.33;5.00;;;;;20.83;45.13;101306.94;5064293;28;66346;-57
2022/06/15 04:28:40;;;;;;;;;7.33;5.33;;;;;20.81;45.26;101311.63;5062167;28;74862;-56
2022/06/15 04:31:05;;;;;;;;;5.33;4.00;;;;;20.77;45.47;101315.59;5067837;27;45279;-57
2022/06/15 04:33:31;;;;;;;;;6.67;5.33;;;;;20.73;45.70;101316.81;5057693;28;64324;-57
2022/06/15 04:35:56;;;;;;;;;10.00;6.33;;;;;20.66;45.62;101311.91;5052328;27;45343;-57
2022/06/15 04:38:22;;;;;;;;;5.67;5.67;;;;;20.63;45.70;101317.56;5053936;28;45303;-57
2022/06/15 04:40:47;;;;;;;;;7.67;6.00;;;;;20.63;45.54;101317.56;5063234;28;55114;-57
2022/06/15 04:43:13;;;;;;;;;6.67;6.00;;;;;20.66;46.02;101314.63;5058872;27;66923;-57
2022/06/15 04:45:38;;;;;;;;;5.33;5.00;;;;;20.70;45.74;101317.09;5068411;28;69220;-57
2022/06/15 04:48:04;;;;;;;;;5.00;5.00;;;;;20.73;45.58;101316.81;5063846;28;46235;-57
2022/06/15 04:50:30;;;;;;;;;7.33;5.67;;;;;20.75;45.83;101322.94;5059384;28;45169;-57
2022/06/15 04:52:56;;;;;;;;;7.33;6.00;;;;;20.76;45.97;101316.56;5062262;28;45487;-57
2022/06/15 04:55:22;;;;;;;;;5.00;5.00;;;;;20.76;45.75;101321.97;5063829;27;45409;-57
2022/06/15 04:57:50;;;;;;;;;6.33;6.33;;;;;20.74;46.03;101316.69;5060154;28;45922;-57
2022/06/15 05:00:17;;;;;;;;;10.00;7.67;;;;;20.76;45.52;101322.81;5054065;28;45415;-57
2022/06/15 05:02:43;;;;;;;;;5.00;4.33;;;;;20.75;45.85;101318.38;5056391;28;45718;-57
2022/06/15 05:05:09;;;;;;;;;7.00;5.33;;;;;20.73;45.61;101333.03;5062506;28;45691;-58
2022/06/15 05:07:35;;;;;;;;;6.00;6.00;;;;;20.74;45.71;101329.34;5065040;27;45441;-57
2022/06/15 05:10:00;;;;;;;;;5.33;5.33;;;;;20.74;45.47;101326.63;5065351;27;45406;-57
2022/06/15 05:12:26;;;;;;;;;4.67;4.67;;;;;20.75;45.42;101329.19;5059030;28;64913;-57
2022/06/15 05:14:51;;;;;;;;;5.33;5.33;;;;;20.75;45.59;101331.91;5067008;28;65674;-58
2022/06/15 05:17:19;;;;;;;;;6.00;5.67;;;;;20.77;45.84;101321.84;5061139;28;46078;-58
2022/06/15 05:19:44;;;;;;;;;6.67;6.67;;;;;20.78;45.68;101322.69;5061942;28;45329;-58
2022/06/15 05:22:10;;;;;;;;;7.00;5.33;;;;;20.79;45.44;101321.69;5066106;27;45292;-57
2022/06/15 05:24:36;;;;;;;;;7.33;7.33;;;;;20.79;46.18;101317.16;5059607;28;46276;-57
2022/06/15 05:27:02;;;;;;;;;8.00;7.33;;;;;20.79;45.95;101316.28;5061418;28;46376;-57
2022/06/15 05:29:28;;;;;;;;;7.33;6.00;;;;;20.74;45.82;101319.41;5058304;28;45469;-57
2022/06/15 05:31:53;;;;;;;;;9.00;5.00;;;;;20.75;45.96;101321.09;5066009;28;45533;-56
2022/06/15 05:34:19;;;;;;;;;8.33;6.00;;;;;20.74;45.86;101323.94;5057745;28;45453;-57
2022/06/15 05:36:44;;;;;;;;;6.00;5.67;;;;;20.75;46.06;101325.66;5058844;28;46742;-57
2022/06/15 05:39:10;;;;;;;;;6.33;6.33;;;;;20.76;46.37;101324.69;5062698;28;53641;-57
2022/06/15 05:41:35;;;;;;;;;7.00;7.00;;;;;20.73;46.36;101327.63;5051789;28;45702;-58
2022/06/15 05:44:02;;;;;;;;;5.33;5.00;;;;;20.76;45.80;101325.53;5056454;28;62720;-57
2022/06/15 05:46:31;;;;;;;;;3.33;3.33;;;;;20.87;45.67;101335.44;5059793;28;45678;-57
2022/06/15 05:48:58;;;;;;;;;7.00;5.33;;;;;21.00;45.95;101324.41;5062824;27;45480;-58
2022/06/15 05:51:23;;;;;;;;;5.00;5.00;;;;;21.07;45.50;101331.00;5052164;28;45572;-57
2022/06/15 05:53:49;;;;;;;;;8.00;6.33;;;;;21.09;45.81;101329.03;5059950;28;45511;-57
2022/06/15 05:56:15;;;;;;;;;6.67;6.67;;;;;21.09;45.22;101329.03;5058303;28;64499;-60
2022/06/15 05:58:41;;;;;;;;;6.33;6.33;;;;;21.11;45.43;101331.59;5078493;27;45511;-59
2022/06/15 06:01:08;;;;;;;;;5.67;5.67;;;;;21.13;45.86;101332.31;5054344;27;45445;-60
2022/06/15 06:03:33;;;;;;;;;6.00;5.00;;;;;21.22;46.45;101330.66;5063156;27;45670;-59
2022/06/15 06:05:59;;;;;;;;;7.00;7.00;;;;;21.30;45.97;101331.72;5063027;28;45700;-58
2022/06/15 06:08:24;;;;;;;;;6.67;6.00;;;;;21.37;45.42;101332.03;5061064;28;45773;-56
2022/06/15 06:10:50;;;;;;;;;5.33;5.33;;;;;21.43;45.61;101336.91;5061640;28;63823;-59
2022/06/15 06:13:15;;;;;;;;;10.67;8.33;;;;;21.46;45.22;101333.09;5052572;28;46926;-57
2022/06/15 06:15:40;;;;;;;;;7.00;6.00;;;;;21.45;45.14;101328.66;5044500;28;65717;-57
2022/06/15 06:18:06;;;;;;;;;7.00;7.00;;;;;21.44;45.39;101332.34;5052012;28;46502;-57
2022/06/15 06:20:31;;;;;;;;;8.00;7.67;;;;;21.40;45.12;101326.34;5059558;28;46911;-57
2022/06/15 06:22:57;;;;;;;;;9.00;8.00;;;;;21.41;44.88;101324.50;5059300;28;64931;-58
2022/06/15 06:25:22;;;;;;;;;6.00;6.00;;;;;21.42;44.95;101324.38;5067025;28;54240;-58
2022/06/15 06:27:47;;;;;;;;;9.67;9.00;;;;;21.45;45.14;101328.66;5067760;28;45804;-58
2022/06/15 06:30:13;;;;;;;;;10.00;7.33;;;;;21.47;45.25;101338.34;5056267;28;67674;-58
2022/06/15 06:32:38;;;;;;;;;6.67;5.67;;;;;21.52;44.95;101335.22;5051394;28;45295;-57
2022/06/15 06:35:04;;;;;;;;;8.33;8.33;;;;;21.57;44.62;101335.72;5052373;28;69628;-58
2022/06/15 06:37:33;;;;;;;;;9.00;8.00;;;;;21.66;44.72;101330.50;5055446;28;45269;-62
2022/06/15 06:39:59;;;;;;;;;16.67;14.33;;;;;21.76;45.72;101336.81;5056137;28;45483;-63
2022/06/15 06:42:24;;;;;;;;;11.67;9.33;;;;;21.96;45.71;101335.84;5050734;28;60609;-59
2022/06/15 06:44:49;;;;;;;;;12.33;10.00;;;;;22.25;44.59;101336.91;5052538;28;46201;-60
2022/06/15 06:47:15;;;;;;;;;6.00;6.00;;;;;22.58;44.10;101337.53;5053964;28;67457;-60
2022/06/15 06:49:40;;;;;;;;;8.00;8.00;;;;;22.88;43.35;101344.66;5056187;28;45338;-60
2022/06/15 06:52:06;;;;;;;;;8.67;6.00;;;;;23.02;42.60;101337.91;5058596;28;45506;-60
2022/06/15 06:54:31;;;;;;;;;11.67;9.00;;;;;23.07;42.57;101332.91;5053789;28;46268;-60
2022/06/15 06:56:57;;;;;;;;;6.67;6.67;;;;;23.17;42.43;101335.66;5060119;28;45296;-60
2022/06/15 06:59:23;;;;;;;;;10.00;7.67;;;;;23.22;42.38;101336.06;5063444;28;46544;-60
2022/06/15 07:01:48;;;;;;;;;8.00;8.00;;;;;23.26;41.97;101333.94;5056920;28;68236;-61
2022/06/15 07:04:15;;;;;;;;;7.33;6.67;;;;;23.35;42.18;101330.31;5052787;28;46094;-61
2022/06/15 07:06:41;;;;;;;;;7.33;5.33;;;;;23.45;41.89;101339.28;5050441;28;45363;-61
2022/06/15 07:09:07;;;;;;;;;6.00;5.00;;;;;23.56;41.67;101331.97;5057047;28;45351;-61
2022/06/15 07:11:33;;;;;;;;;6.00;6.00;;;;;23.70;41.40;101333.31;5046006;28;45481;-60
2022/06/15 07:13:58;;;;;;;;;5.00;5.00;;;;;23.87;41.19;101335.25;5055364;28;46224;-61
2022/06/15 07:16:24;;;;;;;;;8.00;8.00;;;;;24.06;41.22;101336.19;5052808;28;45435;-61
2022/06/15 07:18:49;;;;;;;;;7.00;6.00;;;;;24.24;40.43;101334.34;5057875;28;45454;-60
2022/06/15 07:21:18;;;;;;;;;10.00;6.67;;;;;24.43;40.35;101344.22;5056631;28;60172;-60
2022/06/15 07:23:47;;;;;;;;;6.00;5.00;;;;;24.62;40.58;101336.91;5054360;28;47571;-60
2022/06/15 07:26:15;;;;;;;;;8.67;7.33;;;;;24.88;40.13;101345.16;5056961;28;45190;-60
2022/06/15 07:28:42;;;;;;;;;7.00;7.00;;;;;25.11;39.27;101341.94;5057147;28;45426;-60
2022/06/15 07:31:07;;;;;;;;;12.00;6.67;;;;;25.26;38.87;101345.75;5057161;28;45414;-60
2022/06/15 07:33:34;;;;;;;;;10.33;6.67;;;;;25.47;38.39;101349.16;5049644;28;67761;-60
2022/06/15 07:36:00;;;;;;;;;6.67;6.67;;;;;25.66;38.14;101354.34;5061453;28;45534;-60
2022/06/15 07:38:26;;;;;;;;;5.00;5.00;;;;;25.87;37.23;101355.81;5056938;27;45329;-60
2022/06/15 07:40:52;;;;;;;;;9.67;8.00;;;;;26.11;37.97;101357.78;5060841;27;45323;-60
2022/06/15 07:43:17;;;;;;;;;9.67;7.00;;;;;26.32;37.42;101343.72;5048121;28;46021;-60
2022/06/15 07:45:43;;;;;;;;;8.00;8.00;;;;;26.61;36.18;101349.72;5065191;28;72925;-61
2022/06/15 07:50:53;;;;;;;;;8.33;5.33;;;;;27.20;35.48;101346.81;5060405;28;45394;-60
2022/06/15 07:53:19;;;;;;;;;9.00;6.67;;;;;27.55;35.12;101351.03;5058970;28;46103;-61
2022/06/15 07:55:46;;;;;;;;;7.33;6.00;;;;;27.90;34.64;101346.13;5053177;28;45444;-60
2022/06/15 07:58:12;;;;;;;;;5.33;5.33;;;;;28.19;33.25;101343.78;5060629;28;45284;-61
2022/06/15 08:00:40;;;;;;;;;8.00;6.33;;;;;28.46;33.49;101347.00;5056171;28;45385;-61
2022/06/15 08:03:06;;;;;;;;;11.00;5.33;;;;;28.78;33.67;101328.69;5058564;28;45521;-61
2022/06/15 08:05:35;;;;;;;;;8.67;6.00;;;;;29.09;33.00;101339.50;5064800;28;45263;-61
2022/06/15 08:08:03;;;;;;;;;7.67;5.33;;;;;29.40;32.16;101343.13;5061463;28;45419;-61
2022/06/15 08:10:28;;;;;;;;;6.00;4.00;;;;;29.63;31.77;101340.31;5053440;28;45581;-61
2022/06/15 08:12:54;;;;;;;;;3.00;3.00;;;;;30.04;30.20;101342.56;5050105;28;72543;-60
2022/06/15 08:15:19;;;;;;;;;3.33;3.33;;;;;30.41;30.01;101335.13;5048035;28;45821;-61
2022/06/15 08:17:50;;;;;;;;;2.75;2.50;;;;;30.80;29.58;101339.34;5058818;28;45327;-60
2022/06/15 08:20:38;;;;;;;;;4.33;4.33;;;;;31.20;29.28;101335.22;5065435;28;45512;-60
2022/06/15 08:23:10;;;;;;;;;6.00;4.00;;;;;31.33;28.55;101327.09;5063086;28;45535;-60
2022/06/15 08:25:39;;;;;;;;;3.67;3.00;;;;;31.28;27.50;101335.94;5062045;28;45543;-61
2022/06/15 08:28:06;;;;;;;;;5.33;4.67;;;;;31.22;28.25;101335.88;5082192;27;45559;-61
2022/06/15 08:30:31;;;;;;;;;5.67;5.33;;;;;31.06;28.67;101326.91;5067629;28;46691;-60
2022/06/15 08:32:57;;;;;;;;;6.67;6.67;;;;;30.80;27.69;101328.34;5065832;28;46126;-60
2022/06/15 08:35:23;;;;;;;;;9.67;4.33;;;;;30.62;28.37;101330.72;5062858;27;65980;-60
2022/06/15 08:37:48;;;;;;;;;5.00;5.00;;;;;30.48;29.09;101329.75;5063480;28;45474;-59
2022/06/15 08:40:15;;;;;;;;;5.75;5.00;;;;;30.49;28.07;101337.81;5062917;28;45571;-62
2022/06/15 08:42:52;;;;;;;;;7.00;6.00;;;;;30.48;28.87;101336.09;5054421;28;45500;-60
2022/06/15 08:45:40;;;;;;;;;7.33;7.33;;;;;30.41;28.80;101335.13;5062961;28;45461;-61
2022/06/15 08:48:20;;;;;;;;;5.67;5.67;;;;;30.25;28.94;101325.28;5064396;28;45433;-60
2022/06/15 08:51:06;;;;;;;;;5.00;3.67;;;;;30.09;29.28;101337.34;5065978;28;45478;-60
2022/06/15 08:53:40;;;;;;;;;6.00;6.00;;;;;29.94;28.80;101339.28;5066777;28;46102;-63
2022/06/15 08:56:31;;;;;;;;;5.67;5.67;;;;;29.97;28.28;101330.66;5065441;28;45550;-62
2022/06/15 08:59:11;;;;;;;;;4.50;3.00;;;;;30.46;28.58;101327.22;5076926;27;45563;-62
2022/06/15 09:01:54;;;;;;;;;6.00;4.50;;;;;31.15;27.86;101333.94;5056286;28;45440;-61
2022/06/15 09:04:50;;;;;;;;;4.33;4.33;;;;;31.83;27.35;101325.03;5058226;28;45590;-62
2022/06/15 09:07:32;;;;;;;;;5.00;5.00;;;;;32.44;26.34;101323.31;5053645;28;45387;-62
2022/06/15 09:10:16;;;;;;;;;7.50;5.50;;;;;32.88;26.04;101323.81;5057533;28;45353;-61
2022/06/15 09:12:59;;;;;;;;;5.75;5.75;;;;;33.25;25.19;101329.69;5064077;28;45402;-61
2022/06/15 09:15:42;;;;;;;;;5.75;5.00;;;;;33.71;24.80;101327.03;5056579;28;47026;-61
2022/06/15 09:18:17;;;;;;;;;6.67;5.33;;;;;34.13;25.27;101331.09;5079885;27;45805;-60
2022/06/15 09:20:50;;;;;;;;;5.00;5.00;;;;;34.11;24.36;101332.38;5058561;28;45247;-60
2022/06/15 09:23:33;;;;;;;;;5.33;5.33;;;;;33.91;24.23;101326.97;5057798;28;45291;-60
2022/06/15 09:26:05;;;;;;;;;6.00;5.00;;;;;34.02;24.98;101336.47;5058806;28;45398;-60
2022/06/15 09:28:43;;;;;;;;;6.00;4.33;;;;;34.34;24.17;101326.34;5057842;28;45248;-60
2022/06/15 09:31:18;;;;;;;;;7.00;5.67;;;;;34.70;23.61;101332.22;5058702;28;45384;-60
2022/06/15 09:33:50;;;;;;;;;5.67;5.67;;;;;34.94;22.89;101336.06;5058040;28;45357;-60
2022/06/15 09:36:22;;;;;;;;;9.67;6.67;;;;;35.15;22.50;101333.97;5054190;28;45481;-63
2022/06/15 09:38:48;;;;;;;;;3.67;3.67;;;;;35.41;23.96;101333.72;5059518;28;45374;-63
2022/06/15 09:41:13;;;;;;;;;4.67;4.67;;;;;35.57;22.56;101336.94;5057158;28;45355;-61
2022/06/15 09:43:50;;;;;;;;;4.00;4.00;;;;;35.77;21.91;101329.25;5048814;28;45280;-60
2022/06/15 09:46:24;;;;;;;;;6.33;6.33;;;;;35.93;21.47;101332.47;5058681;28;45485;-61
2022/06/15 09:49:09;;;;;;;;;5.67;5.67;;;;;36.10;22.24;101327.97;5081623;27;45304;-61
2022/06/15 09:52:02;;;;;;;;;5.00;4.33;;;;;36.47;21.69;101324.25;5051725;28;45304;-62
2022/06/15 09:54:37;;;;;;;;;7.00;4.67;;;;;36.74;20.54;101321.88;5058260;28;45402;-62
2022/06/15 09:57:02;;;;;;;;;8.00;5.00;;;;;36.73;19.72;101319.38;5058556;28;45631;-62
2022/06/15 09:59:33;;;;;;;;;5.67;4.00;;;;;36.89;20.95;101317.84;5056154;28;45352;-62
2022/06/15 10:02:00;;;;;;;;;6.33;5.00;;;;;37.14;21.15;101319.50;5059243;28;45311;-62
2022/06/15 10:04:28;;;;;;;;;6.33;5.67;;;;;37.27;20.59;101321.19;5060722;28;45594;-62
2022/06/15 10:07:07;;;;;;;;;5.00;5.00;;;;;37.35;19.94;101312.50;5064475;28;45498;-62
2022/06/15 10:09:37;;;;;;;;;8.00;6.67;;;;;37.28;19.20;101320.09;5063214;28;46837;-61
2022/06/15 10:12:58;;;;;;;;;4.33;4.00;;;;;37.10;20.93;101318.31;5057624;27;45520;-61
2022/06/15 10:15:47;;;;;;;;;8.33;5.67;;;;;37.04;19.25;101323.75;5060625;28;45485;-62
2022/06/15 10:18:14;;;;;;;;;7.00;6.00;;;;;36.80;20.99;101322.00;5062504;28;46923;-61
2022/06/15 10:20:41;;;;;;;;;6.33;5.33;;;;;36.89;20.75;101328.91;5058660;28;45348;-61
2022/06/15 10:23:18;;;;;;;;;4.67;4.67;;;;;36.97;20.23;101325.78;5065804;28;45406;-61
2022/06/15 10:25:49;;;;;;;;;9.00;6.33;;;;;37.05;20.45;101322.66;5057874;28;45411;-61
2022/06/15 10:28:21;;;;;;;;;5.67;5.67;;;;;37.06;20.68;101329.88;5056898;28;45386;-61
2022/06/15 10:30:58;;;;;;;;;7.00;5.67;;;;;36.89;20.68;101324.19;5058490;28;45351;-61
2022/06/15 10:33:24;;;;;;;;;5.33;5.00;;;;;36.77;19.59;101326.09;5057822;28;45616;-61
2022/06/15 10:35:56;;;;;;;;;4.67;4.67;;;;;36.46;21.39;101327.28;5057767;28;45575;-62
2022/06/15 10:38:22;;;;;;;;;7.00;6.00;;;;;36.47;21.22;101334.50;5057017;28;45989;-61
2022/06/15 10:40:57;;;;;;;;;3.67;3.67;;;;;36.65;20.55;101328.88;5059760;28;45351;-61
2022/06/15 10:43:29;;;;;;;;;5.33;4.67;;;;;36.79;20.68;101323.09;5063322;28;45350;-61
2022/06/15 10:45:58;;;;;;;;;7.00;5.33;;;;;36.82;20.61;101322.59;5058017;28;45386;-62
2022/06/15 10:48:34;;;;;;;;;5.00;5.00;;;;;37.00;20.62;101314.22;5056668;28;45735;-61
2022/06/15 10:51:07;;;;;;;;;7.33;4.33;;;;;37.11;20.45;101317.22;5056701;28;45480;-62
2022/06/15 10:53:44;;;;;;;;;9.33;8.00;;;;;36.89;20.41;101321.44;5057234;28;45515;-62
2022/06/15 11:02:06;;;;;;;;;6.67;6.67;;;;;36.45;20.38;101320.88;5056585;28;45778;-61
2022/06/15 11:02:29;;;;;;;;;6.67;6.67;;;;;36.32;20.84;101321.06;5055960;28;45551;-61
2022/06/15 11:05:06;;;;;;;;;5.00;5.00;;;;;36.14;21.17;101319.19;5056177;28;45641;-63
2022/06/15 11:07:34;;;;;;;;;8.00;7.67;;;;;36.11;21.41;101323.28;5063517;28;45519;-61
2022/06/15 11:10:31;;;;;;;;;9.00;7.67;;;;;35.97;21.57;101324.53;5056805;28;46354;-62
2022/06/15 11:13:07;;;;;;;;;4.33;4.33;;;;;35.60;21.91;101323.47;5049957;28;45397;-61
2022/06/15 11:18:28;;;;;;;;;6.00;6.00;;;;;34.85;22.45;101320.84;5057760;28;45265;-61
2022/06/15 11:20:56;;;;;;;;;5.67;5.67;;;;;34.53;22.58;101312.59;5052892;28;45309;-61
2022/06/15 11:23:25;;;;;;;;;9.33;8.00;;;;;34.26;22.74;101316.38;5075951;27;45250;-61
2022/06/15 11:26:00;;;;;;;;;7.00;7.00;;;;;34.06;23.12;101319.25;5067070;28;45465;-62
2022/06/15 11:28:29;;;;;;;;;1.33;1.00;;;;;33.82;23.69;101322.75;5058827;28;46109;-61
2022/06/15 11:30:59;;;;;;;;;6.67;6.67;;;;;33.52;23.83;101320.50;5076037;28;45595;-61
2022/06/15 11:33:37;;;;;;;;;7.00;6.00;;;;;33.31;23.74;101316.97;5072992;27;46056;-61
2022/06/15 11:36:26;;;;;;;;;9.33;6.33;;;;;33.06;24.47;101308.53;5059590;28;45374;-63
2022/06/15 11:38:57;;;;;;;;;6.00;6.00;;;;;32.65;24.68;101313.19;5061479;28;46107;-62
2022/06/15 11:41:28;;;;;;;;;9.00;9.00;;;;;32.42;25.05;101308.91;5059118;28;46152;-62
2022/06/15 11:43:56;;;;;;;;;8.67;8.33;;;;;32.32;25.30;101311.25;5059505;28;45288;-63
2022/06/15 11:46:45;;;;;;;;;11.33;8.00;;;;;32.06;25.55;101310.09;5059712;28;45629;-61
2022/06/15 11:49:23;;;;;;;;;9.00;9.00;;;;;31.98;25.88;101307.53;5053647;28;45593;-60
2022/06/15 11:52:34;;;;;;;;;6.67;6.67;;;;;31.78;25.43;101308.31;5056611;28;45493;-61